Latest Weather Observations for Derby

IDW60801

Issued at 8:05 pm WST Friday 1 August 2014 (issued every 30 minutes, with the page automatically refreshed every 10 minutes)

About weather observations | Map of weather stations | Latest weather observations for WA | Other Formats
Station Details ID: 003032 Name: DERBY AERO Lat: -17.37 Lon: 123.66 Height: 6.2 m
Data from the previous 72 hours. | See also: Recent months at Derby
Date/Time
WST
Temp
°C
App
Temp
°C
Dew
Point
Rel
Hum
%
Delta-T
°C
Wind Press
QNH
hPa
Press
MSL
hPa
Rain
since 9 am
mm
Dir
 
Spd
km/h
Gust
km/h
Spd
kts
Gust
kts
01/08:00pm 26.3 23.3 5.8 27 10.6 SE 11 11 6 6 1014.7 1014.7 0.0
01/07:30pm 26.6 23.5 5.5 26 10.8 SE 11 13 6 7 1014.5 - 0.0
01/07:00pm 27.3 23.7 5.0 24 11.4 SE 13 15 7 8 1014.0 1014.0 0.0
01/06:30pm 27.9 24.7 4.9 23 11.8 SSE 11 13 6 7 1013.7 - 0.0
01/06:00pm 28.3 25.0 4.6 22 12.1 SE 11 13 6 7 1013.3 1013.3 0.0
01/05:30pm 29.4 25.6 4.1 20 12.9 SE 13 13 7 7 1013.0 - 0.0
01/05:00pm 30.9 27.1 3.8 18 13.9 SE 13 17 7 9 1012.7 1012.7 0.0
01/04:30pm 32.9 27.8 2.9 15 15.3 ESE 19 24 10 13 1012.5 - 0.0
01/04:00pm 33.2 27.9 3.1 15 15.5 SE 20 28 11 15 1012.2 1012.2 0.0
01/03:30pm 33.6 28.2 2.4 14 15.9 ESE 20 30 11 16 1012.0 - 0.0
01/03:00pm 33.4 28.0 2.3 14 15.8 SE 20 30 11 16 1012.0 1012.0 0.0
01/02:30pm 33.1 27.6 2.0 14 15.7 ESE 20 28 11 15 1012.1 - 0.0
01/02:00pm 33.8 28.1 2.6 14 16.0 ESE 22 32 12 17 1012.3 1012.3 0.0
01/01:30pm 32.9 26.3 1.9 14 15.6 ESE 26 37 14 20 1012.5 - 0.0
01/01:00pm 33.6 28.2 2.4 14 15.9 ENE 20 33 11 18 1012.7 1012.7 0.0
01/12:48pm 33.2 26.4 3.1 15 15.5 ESE 28 46 15 25 1013.0 - 0.0
01/12:30pm 33.3 26.5 3.2 15 15.5 ESE 28 39 15 21 1013.2 - 0.0
01/12:00pm 32.6 25.3 2.6 15 15.2 ESE 30 43 16 23 1013.7 1013.7 0.0
01/11:30am 32.0 24.2 3.1 16 14.7 E 33 46 18 25 1014.3 - 0.0
01/11:00am 31.7 23.5 2.8 16 14.6 ESE 35 46 19 25 1014.8 1014.8 0.0
01/10:30am 31.2 23.1 3.3 17 14.2 ESE 35 46 19 25 1015.1 - 0.0
01/10:00am 30.4 22.7 3.4 18 13.7 ESE 33 48 18 26 1015.6 1015.6 0.0
01/09:30am 28.9 21.3 3.7 20 12.7 ESE 33 44 18 24 1016.0 - 0.0
01/09:00am 28.1 21.5 4.4 22 12.0 ESE 28 41 15 22 1016.2 1016.2 0.0
01/08:30am 26.8 20.5 4.0 23 11.4 ESE 26 37 14 20 1016.3 - 0.0
01/08:00am 24.9 20.1 4.6 27 10.1 SE 19 28 10 15 1016.0 1016.0 0.0
01/07:30am 20.9 16.9 4.9 35 7.8 S 15 19 8 10 1015.9 - 0.0
01/07:00am 18.6 14.3 5.1 41 6.5 S 17 20 9 11 1015.4 1015.4 0.0
01/06:30am 16.4 12.1 5.1 47 5.4 S 17 19 9 10 1015.2 - 0.0
01/06:00am 17.0 13.4 5.0 45 5.7 S 13 15 7 8 1014.9 1014.9 0.0
01/05:30am 17.5 13.5 5.1 44 5.9 S 15 17 8 9 1014.7 - 0.0
01/05:00am 17.2 14.2 6.1 48 5.4 S 11 13 6 7 1014.6 1014.6 0.0
01/04:30am 18.0 14.9 5.6 44 6.0 SSE 11 13 6 7 1014.5 - 0.0
01/04:00am 18.9 14.7 5.7 42 6.5 SSE 17 19 9 10 1014.4 1014.4 0.0
01/03:30am 17.4 15.0 7.2 51 5.1 S 9 11 5 6 1014.4 - 0.0
01/03:00am 17.6 14.8 7.1 50 5.2 S 11 13 6 7 1014.3 1014.3 0.0
01/02:30am 17.5 15.2 7.3 51 5.1 S 9 11 5 6 1014.2 - 0.0
01/02:00am 17.6 15.5 8.2 54 4.8 S 9 11 5 6 1014.2 1014.2 0.0
01/01:30am 17.7 15.6 8.3 54 4.8 SSE 9 11 5 6 1014.2 - 0.0
01/01:00am 18.8 16.1 7.3 47 5.8 S 11 11 6 6 1014.3 1014.3 0.0
01/12:30am 20.1 17.3 7.1 43 6.6 S 11 13 6 7 1014.5 - 0.0
01/12:00am 20.8 17.7 7.1 41 7.0 SSE 13 13 7 7 1014.4 1014.4 0.0
 
Date/Time
WST
Temp
°C
App
Temp
°C
Dew
Point
Rel
Hum
%
Delta-T
°C
Wind Press
QNH
hPa
Press
MSL
hPa
Rain
since 9 am
mm
Dir
 
Spd
km/h
Gust
km/h
Spd
kts
Gust
kts
31/11:30pm 19.0 16.7 8.9 52 5.3 SE 11 11 6 6 1014.3 - 0.0
31/11:00pm 20.1 18.3 9.4 50 5.7 SSE 9 11 5 6 1014.4 1014.4 0.0
31/10:30pm 20.3 19.0 9.8 51 5.6 SSE 7 9 4 5 1014.6 - 0.0
31/10:00pm 21.9 19.8 8.4 42 7.1 SSE 9 11 5 6 1014.7 1014.7 0.0
31/09:30pm 20.3 18.8 10.7 54 5.2 SSE 9 13 5 7 1014.8 - 0.0
31/09:00pm 20.7 20.7 11.3 55 5.2 SSE 2 7 1 4 1014.6 1014.6 0.0
31/08:30pm 20.9 21.1 10.7 52 5.6 CALM 0 0 0 0 1014.4 - 0.0
31/08:00pm 21.3 21.6 10.8 51 5.8 CALM 0 0 0 0 1014.3 1014.3 0.0
31/07:30pm 22.0 22.2 10.5 48 6.3 CALM 0 0 0 0 1013.9 - 0.0
31/07:00pm 23.5 23.7 10.6 44 7.1 CALM 0 0 0 0 1013.4 1013.4 0.0
31/06:30pm 25.5 25.6 10.1 38 8.5 CALM 0 0 0 0 1013.1 - 0.0
31/06:00pm 26.1 24.5 10.3 37 8.8 WNW 9 11 5 6 1012.9 1012.9 0.0
31/05:30pm 28.4 26.3 9.6 31 10.5 NW 11 13 6 7 1012.7 - 0.0
31/05:00pm 30.6 27.4 8.3 25 12.3 WNW 15 19 8 10 1012.6 1012.6 0.0
31/04:30pm 32.4 28.5 7.3 21 13.7 NW 17 20 9 11 1012.4 - 0.0
31/04:00pm 33.4 31.3 6.6 19 14.6 SSW 7 13 4 7 1012.2 1012.2 0.0
31/03:30pm 34.1 31.6 6.4 18 15.1 N 9 15 5 8 1012.1 - 0.0
31/03:00pm 33.4 29.8 5.0 17 15.1 S 13 20 7 11 1012.2 1012.2 0.0
31/02:30pm 33.4 29.8 5.0 17 15.1 SE 13 24 7 13 1012.4 - 0.0
31/02:00pm 33.7 30.9 5.3 17 15.2 E 9 17 5 9 1012.8 1012.8 0.0
31/01:30pm 33.2 28.6 5.7 18 14.7 SE 19 26 10 14 1013.3 - 0.0
31/01:00pm 33.5 27.7 4.2 16 15.3 ESE 24 30 13 16 1013.7 1013.7 0.0
31/12:30pm 33.6 28.9 5.2 17 15.1 E 19 24 10 13 1014.0 - 0.0
31/12:00pm 33.0 28.2 5.5 18 14.7 SE 20 28 11 15 1014.4 1014.4 0.0
31/11:30am 32.4 28.2 5.8 19 14.2 ESE 17 24 9 13 1014.9 - 0.0
31/11:00am 32.0 28.7 6.2 20 13.8 E 13 20 7 11 1015.4 1015.4 0.0
31/10:30am 31.3 26.7 6.4 21 13.4 SE 20 26 11 14 1015.8 - 0.0
31/10:00am 30.2 25.1 6.1 22 12.8 SE 22 30 12 16 1016.2 1016.2 0.0
31/09:30am 28.6 24.9 6.1 24 11.8 SE 15 20 8 11 1016.5 - 0.0
31/09:00am 25.5 22.9 7.6 32 9.5 S 11 15 6 8 1016.7 1016.7 0.0
31/08:30am 23.4 21.3 6.7 34 8.6 SE 7 11 4 6 1016.9 - 0.0
31/08:00am 20.3 18.2 6.6 41 6.9 S 7 9 4 5 1016.8 1016.8 0.0
31/07:30am 18.7 17.4 7.8 49 5.6 ESE 4 6 2 3 1016.8 - 0.0
31/07:00am 16.8 15.1 7.7 55 4.6 SE 6 7 3 4 1016.6 1016.6 0.0
31/06:30am 14.6 11.3 7.9 64 3.3 S 15 17 8 9 1016.2 - 0.0
31/06:00am 14.3 11.3 7.8 65 3.2 S 13 15 7 8 1016.0 1016.0 0.0
31/05:30am 14.8 12.8 8.5 66 3.2 S 9 13 5 7 1015.9 - 0.0
31/05:00am 15.5 14.0 8.3 62 3.6 SE 6 7 3 4 1015.9 1015.9 0.0
31/04:30am 16.4 13.5 8.1 58 4.2 S 13 15 7 8 1015.6 - 0.0
31/04:00am 16.7 13.8 8.1 57 4.4 S 13 15 7 8 1015.4 1015.4 0.0
31/03:30am 16.9 14.0 8.3 57 4.4 S 13 13 7 7 1015.3 - 0.0
31/03:00am 17.1 13.9 8.5 57 4.4 S 15 17 8 9 1015.2 1015.2 0.0
31/02:30am 17.9 14.8 9.0 56 4.6 S 15 19 8 10 1015.2 - 0.0
31/02:00am 18.3 15.7 9.4 56 4.7 S 13 17 7 9 1015.3 1015.3 0.0
31/01:30am 19.0 16.3 10.3 57 4.7 S 15 17 8 9 1015.3 - 0.0
31/01:00am 19.5 16.8 10.2 55 5.0 S 15 17 8 9 1015.4 1015.4 0.0
31/12:30am 19.4 17.2 10.7 57 4.7 S 13 13 7 7 1015.7 - 0.0
31/12:00am 18.0 16.5 10.6 62 4.0 S 9 9 5 5 1015.8 1015.8 0.0
 
Date/Time
WST
Temp
°C
App
Temp
°C
Dew
Point
Rel
Hum
%
Delta-T
°C
Wind Press
QNH
hPa
Press
MSL
hPa
Rain
since 9 am
mm
Dir
 
Spd
km/h
Gust
km/h
Spd
kts
Gust
kts
30/11:30pm 19.9 19.1 10.9 56 4.9 SSW 6 9 3 5 1015.6 - 0.0
30/11:00pm 20.4 19.1 9.9 51 5.6 SSW 7 9 4 5 1015.2 1015.2 0.0
30/10:30pm 20.0 18.8 10.4 54 5.2 S 7 9 4 5 1015.4 - 0.0
30/10:00pm 20.4 19.5 10.8 54 5.2 S 6 9 3 5 1015.5 1015.5 0.0
30/09:30pm 20.5 20.4 10.9 54 5.3 S 2 6 1 3 1015.5 - 0.0
30/09:00pm 22.0 21.1 10.8 49 6.2 SE 6 9 3 5 1015.6 1015.6 0.0
30/08:30pm 21.4 20.4 11.1 52 5.7 S 7 9 4 5 1015.4 - 0.0
30/08:00pm 24.0 22.8 11.7 46 6.9 SSW 9 11 5 6 1015.2 1015.2 0.0
30/07:30pm 24.2 23.1 11.9 46 7.0 SSW 9 20 5 11 1015.1 - 0.0
30/07:00pm 23.5 23.0 12.2 49 6.4 W 6 9 3 5 1014.7 1014.7 0.0
30/06:30pm 24.5 23.6 11.5 44 7.3 WNW 7 9 4 5 1014.3 - 0.0
30/06:00pm 25.1 22.7 10.2 39 8.2 NW 13 15 7 8 1014.1 1014.1 0.0
30/05:30pm 27.4 24.9 9.7 33 9.8 NW 13 17 7 9 1014.0 - 0.0
30/05:00pm 29.9 26.1 7.7 25 12.1 WNW 17 19 9 10 1013.7 1013.7 0.0
30/04:30pm 31.3 27.0 7.1 22 13.1 NW 19 20 10 11 1013.5 - 0.0
30/04:00pm 32.0 27.5 7.0 21 13.6 NW 20 24 11 13 1013.4 1013.4 0.0
30/03:30pm 32.6 28.0 6.7 20 14.1 WNW 20 32 11 17 1013.3 - 0.0
30/03:00pm 33.1 28.6 7.1 20 14.2 NW 20 24 11 13 1013.3 1013.3 0.0
30/02:30pm 33.0 28.5 8.5 22 13.7 NW 22 28 12 15 1013.5 - 0.0
30/02:11pm 32.9 27.7 10.3 25 13.0 W 28 44 15 24 1013.4 - 0.0
30/02:00pm 33.5 31.1 5.1 17 15.1 NE 7 15 4 8 1013.5 1013.5 0.0
30/01:30pm 33.7 30.9 5.3 17 15.2 WNW 9 19 5 10 1013.8 - 0.0
30/01:00pm 33.0 30.5 4.7 17 14.9 E 7 15 4 8 1014.4 1014.4 0.0
30/12:30pm 32.8 29.5 4.6 17 14.8 NE 11 22 6 12 1014.9 - 0.0
30/12:00pm 32.7 29.2 5.3 18 14.5 E 13 19 7 10 1015.3 1015.3 0.0
30/11:30am 32.7 29.5 6.8 20 14.1 NE 13 24 7 13 1015.6 - 0.0
30/11:00am 32.6 29.3 8.1 22 13.6 ENE 15 22 8 12 1016.3 1016.3 0.0
30/10:30am 31.7 27.9 7.4 22 13.3 ENE 17 28 9 15 1016.7 - 0.0
30/10:00am 30.6 27.7 8.3 25 12.3 ENE 13 20 7 11 1016.9 1016.9 0.0
30/09:30am 29.9 27.3 7.7 25 12.1 E 11 19 6 10 1017.3 - 0.0
30/09:00am 27.7 24.0 6.5 26 11.1 ESE 15 20 8 11 1017.6 1017.6 0.0
30/08:30am 25.7 21.9 5.8 28 10.2 ESE 15 22 8 12 1017.7 - 0.0
30/08:00am 23.5 19.9 6.7 34 8.6 SE 15 20 8 11 1017.5 1017.5 0.0
30/07:30am 21.2 17.7 7.1 40 7.2 SE 15 19 8 10 1017.4 - 0.0
30/07:00am 19.4 17.5 6.5 43 6.4 E 6 7 3 4 1017.4 1017.4 0.0
30/06:30am 16.2 14.6 6.3 52 4.8 N 4 7 2 4 1017.1 - 0.0
30/06:00am 16.2 14.2 7.2 55 4.5 N 7 13 4 7 1016.8 1016.8 0.0
30/05:30am 17.4 15.4 6.9 50 5.2 ESE 7 11 4 6 1016.0 - 0.0
30/05:00am 17.5 14.1 7.8 53 4.9 SSE 15 19 8 10 1015.7 1015.7 0.0
30/04:30am 17.1 13.3 7.5 53 4.8 S 17 19 9 10 1015.6 - 0.0
30/04:00am 16.0 14.2 9.4 65 3.4 S 9 13 5 7 1015.7 1015.7 0.0
30/03:30am 16.3 15.9 9.9 66 3.4 N 2 7 1 4 1015.7 - 0.0
30/03:00am 17.2 16.5 9.9 62 3.8 NNE 4 9 2 5 1015.6 1015.6 0.0
30/02:30am 17.0 15.8 9.7 62 3.8 N 6 9 3 5 1015.6 - 0.0
30/02:00am 17.8 17.7 9.4 58 4.4 CALM 0 4 0 2 1015.6 1015.6 0.0
30/01:30am 18.6 17.2 9.7 56 4.7 S 7 11 4 6 1015.6 - 0.0
30/01:00am 18.2 16.2 10.3 60 4.2 SW 11 17 6 9 1015.7 1015.7 0.0
30/12:30am 19.0 17.0 10.0 56 4.8 NW 11 19 6 10 1015.9 - 0.0
30/12:00am 18.3 16.6 11.1 63 3.9 SSW 11 13 6 7 1015.8 1015.8 0.0
 
Date/Time
WST
Temp
°C
App
Temp
°C
Dew
Point
Rel
Hum
%
Delta-T
°C
Wind Press
QNH
hPa
Press
MSL
hPa
Rain
since 9 am
mm
Dir
 
Spd
km/h
Gust
km/h
Spd
kts
Gust
kts
29/11:30pm 19.9 18.9 10.3 54 5.2 E 6 11 3 6 1015.8 - 0.0
29/11:00pm 19.3 17.6 11.1 59 4.5 S 11 15 6 8 1015.7 1015.7 0.0
29/10:30pm 19.7 18.9 11.2 58 4.7 ESE 6 9 3 5 1016.0 - 0.0
29/10:00pm 20.6 19.7 11.2 55 5.2 SSE 7 7 4 4 1016.0 1016.0 0.0
29/09:30pm 20.8 19.6 11.7 56 5.1 ESE 9 13 5 7 1016.0 - 0.0
29/09:00pm 20.7 19.4 11.1 54 5.3 SE 9 11 5 6 1015.9 1015.9 0.0
29/08:30pm 21.8 20.7 11.8 53 5.6 ESE 9 11 5 6 1015.8 - 0.0

Other Formats:

Comma delimited format used in spreadsheet applications
http://www.bom.gov.au/fwo/IDW60801/IDW60801.95205.axf

JavaScript Object Notation format (JSON) in row-major order
http://www.bom.gov.au/fwo/IDW60801/IDW60801.95205.json